createdAt,value
2018-08-11T00:00:26.889Z,1011.72
2018-08-11T00:02:19.704Z,1011.74
2018-08-11T00:03:19.665Z,1011.74
2018-08-11T00:05:12.488Z,1011.69
2018-08-11T00:06:12.445Z,1011.71
2018-08-11T00:08:05.275Z,1011.69
2018-08-11T00:09:05.235Z,1011.71
2018-08-11T00:10:58.047Z,1011.67
2018-08-11T00:11:58.009Z,1011.69
2018-08-11T00:13:50.853Z,1011.62
2018-08-11T00:14:50.788Z,1011.64
2018-08-11T00:16:44.128Z,1011.60
2018-08-11T00:17:44.084Z,1011.63
2018-08-11T00:19:37.419Z,1011.66
2018-08-11T00:20:37.364Z,1011.65
2018-08-11T00:22:30.173Z,1011.63
2018-08-11T00:23:30.135Z,1011.61
2018-08-11T00:25:22.965Z,1011.69
2018-08-11T00:26:22.923Z,1011.65
2018-08-11T00:28:15.734Z,1011.65
2018-08-11T00:29:15.706Z,1011.66
2018-08-11T00:31:09.011Z,1011.64
2018-08-11T00:32:08.961Z,1011.64
2018-08-11T00:34:02.291Z,1011.62
2018-08-11T00:35:02.246Z,1011.68
2018-08-11T00:36:55.568Z,1011.66
2018-08-11T00:37:55.531Z,1011.66
2018-08-11T00:39:48.341Z,1011.68
2018-08-11T00:40:48.295Z,1011.72
2018-08-11T00:42:41.125Z,1011.70
2018-08-11T00:43:41.079Z,1011.69
2018-08-11T00:45:33.907Z,1011.68
2018-08-11T00:46:33.852Z,1011.70
2018-08-11T00:48:26.661Z,1011.79
2018-08-11T00:49:26.682Z,1011.80
2018-08-11T00:51:19.477Z,1011.79
2018-08-11T00:52:19.421Z,1011.81
2018-08-11T00:54:12.229Z,1011.83
2018-08-11T00:55:12.212Z,1011.84
2018-08-11T00:57:05.021Z,1011.78
2018-08-11T00:58:04.976Z,1011.85
2018-08-11T00:59:57.790Z,1011.89
2018-08-11T01:00:57.753Z,1011.91
2018-08-11T01:02:50.593Z,1011.98
2018-08-11T01:03:50.541Z,1011.96
2018-08-11T01:05:43.361Z,1011.90
2018-08-11T01:06:43.318Z,1011.94
2018-08-11T01:08:36.651Z,1011.96
2018-08-11T01:09:36.671Z,1011.90
2018-08-11T01:11:29.401Z,1011.91
2018-08-11T01:12:29.372Z,1011.90
2018-08-11T01:14:22.715Z,1011.93
2018-08-11T01:15:22.672Z,1011.92
2018-08-11T01:17:15.497Z,1011.97
2018-08-11T01:18:15.436Z,1011.87
2018-08-11T01:20:08.326Z,1011.94
2018-08-11T01:21:08.288Z,1011.98
2018-08-11T01:23:01.612Z,1012.03
2018-08-11T01:24:01.573Z,1012.03
2018-08-11T01:25:54.402Z,1012.04
2018-08-11T01:26:54.338Z,1012.05
2018-08-11T01:28:47.173Z,1012.01
2018-08-11T01:29:47.134Z,1012.09
2018-08-11T01:31:39.965Z,1012.13
2018-08-11T01:32:39.941Z,1012.13
2018-08-11T01:34:33.228Z,1012.17
2018-08-11T01:35:33.192Z,1012.20
2018-08-11T01:37:26.033Z,1012.34
2018-08-11T01:38:25.973Z,1012.40
2018-08-11T01:40:18.778Z,1012.49
2018-08-11T01:41:18.754Z,1012.44
2018-08-11T01:43:11.578Z,1012.48
2018-08-11T01:44:11.551Z,1012.53
2018-08-11T01:46:04.353Z,1012.51
2018-08-11T01:47:04.314Z,1012.51
2018-08-11T01:48:57.150Z,1012.53
2018-08-11T01:49:57.109Z,1012.58
2018-08-11T01:51:49.918Z,1012.59
2018-08-11T01:52:49.894Z,1012.60
2018-08-11T01:54:43.209Z,1012.56
2018-08-11T01:55:43.156Z,1012.56
2018-08-11T01:57:36.111Z,1012.54
2018-08-11T01:58:35.942Z,1012.50
2018-08-11T02:00:29.263Z,1012.56
2018-08-11T02:01:29.238Z,1012.57
2018-08-11T02:03:22.549Z,1012.62
2018-08-11T02:04:22.499Z,1012.58
2018-08-11T02:06:15.313Z,1012.66
2018-08-11T02:07:15.284Z,1012.64
2018-08-11T02:09:08.094Z,1012.64
2018-08-11T02:10:08.068Z,1012.67
2018-08-11T02:12:01.359Z,1012.66
2018-08-11T02:13:01.323Z,1012.70
2018-08-11T02:14:54.168Z,1012.64
2018-08-11T02:15:54.124Z,1012.59
2018-08-11T02:17:47.433Z,1012.56
2018-08-11T02:18:47.384Z,1012.54
2018-08-11T02:20:40.713Z,1012.52
2018-08-11T02:21:40.680Z,1012.50
2018-08-11T02:23:33.488Z,1012.44
2018-08-11T02:24:33.431Z,1012.44
2018-08-11T02:26:26.254Z,1012.40
2018-08-11T02:27:26.213Z,1012.42
2018-08-11T02:29:19.065Z,1012.45
2018-08-11T02:30:19.004Z,1012.42
2018-08-11T02:32:11.809Z,1012.48
2018-08-11T02:33:11.781Z,1012.48
2018-08-11T02:35:04.610Z,1012.47
2018-08-11T02:36:04.550Z,1012.43
2018-08-11T02:37:57.366Z,1012.49
2018-08-11T02:38:57.331Z,1012.46
2018-08-11T02:40:50.163Z,1012.46
2018-08-11T02:41:50.112Z,1012.47
2018-08-11T02:43:42.925Z,1012.45
2018-08-11T02:44:42.875Z,1012.49
2018-08-11T02:46:35.697Z,1012.44
2018-08-11T02:47:35.656Z,1012.46
2018-08-11T02:49:28.475Z,1012.48
2018-08-11T02:50:28.439Z,1012.48
2018-08-11T02:52:21.262Z,1012.45
2018-08-11T02:53:21.230Z,1012.48
2018-08-11T02:55:14.039Z,1012.48
2018-08-11T02:56:13.989Z,1012.48
2018-08-11T02:58:06.835Z,1012.50
2018-08-11T02:59:06.796Z,1012.55
2018-08-11T03:00:59.596Z,1012.51
2018-08-11T03:01:59.561Z,1012.47
2018-08-11T03:03:52.876Z,1012.46
2018-08-11T03:04:52.836Z,1012.44
2018-08-11T03:06:45.676Z,1012.41
2018-08-11T03:07:45.615Z,1012.36
2018-08-11T03:09:38.931Z,1012.44
2018-08-11T03:10:38.885Z,1012.44
2018-08-11T03:12:31.722Z,1012.48
2018-08-11T03:13:31.673Z,1012.46
2018-08-11T03:15:24.981Z,1012.47
2018-08-11T03:16:24.944Z,1012.51
2018-08-11T03:18:17.766Z,1012.44
2018-08-11T03:19:17.728Z,1012.45
2018-08-11T03:21:10.556Z,1012.45
2018-08-11T03:22:10.497Z,1012.44
2018-08-11T03:24:03.300Z,1012.45
2018-08-11T03:25:03.278Z,1012.45
2018-08-11T03:26:56.596Z,1012.48
2018-08-11T03:27:56.545Z,1012.50
2018-08-11T03:29:49.348Z,1012.59
2018-08-11T03:30:49.323Z,1012.60
2018-08-11T03:32:42.181Z,1012.63
2018-08-11T03:33:42.087Z,1012.63
2018-08-11T03:35:35.418Z,1012.62
2018-08-11T03:36:35.377Z,1012.64
2018-08-11T03:38:28.205Z,1012.65
2018-08-11T03:39:28.156Z,1012.70
2018-08-11T03:41:21.461Z,1012.71
2018-08-11T03:42:21.441Z,1012.76
2018-08-11T03:44:14.733Z,1012.79
2018-08-11T03:45:14.702Z,1012.82
2018-08-11T03:47:07.514Z,1012.84
2018-08-11T03:48:07.463Z,1012.88
2018-08-11T03:50:00.793Z,1012.88
2018-08-11T03:51:00.755Z,1012.88
2018-08-11T03:52:54.036Z,1012.90
2018-08-11T03:53:53.998Z,1012.88
2018-08-11T03:55:47.312Z,1012.88
2018-08-11T03:56:47.272Z,1012.89
2018-08-11T03:58:40.591Z,1012.91
2018-08-11T03:59:40.562Z,1012.93
2018-08-11T04:01:33.392Z,1012.87
2018-08-11T04:02:33.357Z,1012.86
2018-08-11T04:04:26.161Z,1012.90
2018-08-11T04:05:26.108Z,1012.87
2018-08-11T04:07:18.913Z,1012.87
2018-08-11T04:08:18.902Z,1012.81
2018-08-11T04:10:11.712Z,1012.79
2018-08-11T04:11:11.658Z,1012.82
2018-08-11T04:13:04.979Z,1012.87
2018-08-11T04:14:04.923Z,1012.91
2018-08-11T04:15:58.238Z,1012.93
2018-08-11T04:16:58.192Z,1012.90
2018-08-11T04:18:50.993Z,1012.95
2018-08-11T04:19:50.960Z,1012.96
2018-08-11T04:21:43.782Z,1013.00
2018-08-11T04:22:43.742Z,1013.03
2018-08-11T04:24:37.089Z,1013.04
2018-08-11T04:25:37.045Z,1013.02
2018-08-11T04:27:29.834Z,1013.07
2018-08-11T04:28:29.800Z,1013.05
2018-08-11T04:30:22.625Z,1013.05
2018-08-11T04:31:22.568Z,1013.09
2018-08-11T04:33:15.384Z,1013.12
2018-08-11T04:34:15.356Z,1013.07
2018-08-11T04:36:08.172Z,1013.11
2018-08-11T04:37:08.133Z,1013.08
2018-08-11T04:39:00.928Z,1013.06
2018-08-11T04:40:00.899Z,1013.15
2018-08-11T04:41:53.756Z,1013.14
2018-08-11T04:42:53.674Z,1013.10
2018-08-11T04:44:46.493Z,1013.13
2018-08-11T04:45:46.451Z,1013.14
2018-08-11T04:47:39.765Z,1013.23
2018-08-11T04:48:39.720Z,1013.24
2018-08-11T04:50:32.541Z,1013.27
2018-08-11T04:51:32.496Z,1013.27
2018-08-11T04:53:25.301Z,1013.25
2018-08-11T04:54:25.287Z,1013.25
2018-08-11T04:56:18.081Z,1013.23
2018-08-11T04:57:18.036Z,1013.30
2018-08-11T04:59:10.846Z,1013.29
2018-08-11T05:00:10.809Z,1013.29
2018-08-11T05:02:04.145Z,1013.33
2018-08-11T05:03:04.086Z,1013.33
2018-08-11T05:04:56.901Z,1013.37
2018-08-11T05:05:56.874Z,1013.39
2018-08-11T05:07:49.700Z,1013.39
2018-08-11T05:08:49.674Z,1013.40
2018-08-11T05:10:42.462Z,1013.44
2018-08-11T05:11:42.425Z,1013.42
2018-08-11T05:13:35.241Z,1013.46
2018-08-11T05:14:35.197Z,1013.50
2018-08-11T05:16:28.007Z,1013.53
2018-08-11T05:17:27.981Z,1013.53
2018-08-11T05:19:21.392Z,1013.59
2018-08-11T05:20:21.252Z,1013.61
2018-08-11T05:22:14.062Z,1013.65
2018-08-11T05:23:14.020Z,1013.60
2018-08-11T05:25:06.852Z,1013.63
2018-08-11T05:26:06.798Z,1013.58
2018-08-11T05:27:59.630Z,1013.64
2018-08-11T05:28:59.585Z,1013.65
2018-08-11T05:30:52.896Z,1013.67
2018-08-11T05:31:52.852Z,1013.65
2018-08-11T05:33:45.677Z,1013.63
2018-08-11T05:34:45.623Z,1013.62
2018-08-11T05:36:38.941Z,1013.67
2018-08-11T05:37:38.906Z,1013.69
2018-08-11T05:39:31.731Z,1013.68
2018-08-11T05:40:31.686Z,1013.63
2018-08-11T05:42:24.501Z,1013.70
2018-08-11T05:43:24.462Z,1013.69
2018-08-11T05:45:17.286Z,1013.70
2018-08-11T05:46:17.248Z,1013.72
2018-08-11T05:48:10.061Z,1013.73
2018-08-11T05:49:10.027Z,1013.73
2018-08-11T05:51:02.833Z,1013.74
2018-08-11T05:52:02.801Z,1013.77
2018-08-11T05:53:55.622Z,1013.81
2018-08-11T05:54:55.576Z,1013.85
2018-08-11T05:56:48.377Z,1013.89
2018-08-11T05:57:48.343Z,1013.86
2018-08-11T05:59:41.189Z,1013.87
2018-08-11T06:00:41.128Z,1013.88
2018-08-11T06:02:34.474Z,1013.91
2018-08-11T06:03:34.434Z,1013.95
2018-08-11T06:05:27.289Z,1014.00
2018-08-11T06:06:27.208Z,1013.98
2018-08-11T06:08:20.032Z,1013.99
2018-08-11T06:09:19.988Z,1014.01
2018-08-11T06:11:12.914Z,1014.05
2018-08-11T06:12:12.853Z,1014.07
2018-08-11T06:14:05.682Z,1014.09
2018-08-11T06:15:05.633Z,1014.12
2018-08-11T06:16:58.952Z,1014.13
2018-08-11T06:17:58.937Z,1014.14
2018-08-11T06:19:51.998Z,1014.13
2018-08-11T06:20:51.713Z,1014.18
2018-08-11T06:22:45.025Z,1014.17
2018-08-11T06:23:45.024Z,1014.18
2018-08-11T06:25:37.822Z,1014.25
2018-08-11T06:26:37.784Z,1014.24
2018-08-11T06:28:30.587Z,1014.26
2018-08-11T06:29:30.553Z,1014.23
2018-08-11T06:31:23.428Z,1014.30
2018-08-11T06:32:23.334Z,1014.30
2018-08-11T06:34:16.164Z,1014.35
2018-08-11T06:35:16.114Z,1014.36
2018-08-11T06:37:08.930Z,1014.34
2018-08-11T06:38:08.884Z,1014.36
2018-08-11T06:40:01.729Z,1014.42
2018-08-11T06:41:01.969Z,1014.37
2018-08-11T06:42:54.509Z,1014.40
2018-08-11T06:43:54.473Z,1014.42
2018-08-11T06:45:47.299Z,1014.44
2018-08-11T06:46:47.299Z,1014.41
2018-08-11T06:48:40.078Z,1014.46
2018-08-11T06:49:40.026Z,1014.43
2018-08-11T06:51:32.848Z,1014.49
2018-08-11T06:52:32.809Z,1014.47
2018-08-11T06:54:26.135Z,1014.50
2018-08-11T06:55:26.114Z,1014.50
2018-08-11T06:57:18.920Z,1014.53
2018-08-11T06:58:18.875Z,1014.49
2018-08-11T07:00:11.711Z,1014.58
2018-08-11T07:01:11.658Z,1014.52
2018-08-11T07:03:04.969Z,1014.59
2018-08-11T07:04:05.018Z,1014.59
2018-08-11T07:05:58.280Z,1014.62
2018-08-11T07:06:58.221Z,1014.66
2018-08-11T07:08:51.505Z,1014.63
2018-08-11T07:09:51.480Z,1014.59
2018-08-11T07:11:44.810Z,1014.60
2018-08-11T07:12:44.761Z,1014.56
2018-08-11T07:14:37.720Z,1014.60
2018-08-11T07:15:37.696Z,1014.57
2018-08-11T07:17:31.005Z,1014.62
2018-08-11T07:18:30.956Z,1014.64
2018-08-11T07:20:23.769Z,1014.64
2018-08-11T07:21:23.779Z,1014.69
2018-08-11T07:23:16.577Z,1014.68
2018-08-11T07:24:16.510Z,1014.67
2018-08-11T07:26:09.341Z,1014.66
2018-08-11T07:27:09.296Z,1014.65
2018-08-11T07:29:02.120Z,1014.67
2018-08-11T07:30:02.092Z,1014.65
2018-08-11T07:31:55.408Z,1014.70
2018-08-11T07:32:55.356Z,1014.72
2018-08-11T07:34:48.172Z,1014.71
2018-08-11T07:35:48.131Z,1014.72
2018-08-11T07:37:40.978Z,1014.73
2018-08-11T07:38:40.923Z,1014.74
2018-08-11T07:40:33.741Z,1014.75
2018-08-11T07:41:33.706Z,1014.79
2018-08-11T07:43:26.538Z,1014.80
2018-08-11T07:44:26.477Z,1014.79
2018-08-11T07:46:19.295Z,1014.86
2018-08-11T07:47:19.258Z,1014.90
2018-08-11T07:49:12.085Z,1014.88
2018-08-11T07:50:12.063Z,1014.84
2018-08-11T07:52:04.867Z,1014.86
2018-08-11T07:53:04.816Z,1014.91
2018-08-11T07:54:57.698Z,1014.95
2018-08-11T07:55:57.662Z,1014.88
2018-08-11T07:57:50.437Z,1014.89
2018-08-11T07:58:50.396Z,1014.95
2018-08-11T08:00:43.207Z,1014.91
2018-08-11T08:01:43.174Z,1014.95
2018-08-11T08:03:36.001Z,1014.94
2018-08-11T08:04:35.953Z,1014.89
2018-08-11T08:06:28.774Z,1014.92
2018-08-11T08:07:28.732Z,1014.92
2018-08-11T08:09:21.573Z,1014.96
2018-08-11T08:10:21.522Z,1014.94
2018-08-11T08:12:14.342Z,1014.91
2018-08-11T08:13:14.298Z,1014.95
2018-08-11T08:15:07.137Z,1014.98
2018-08-11T08:16:07.098Z,1014.95
2018-08-11T08:17:59.912Z,1014.97
2018-08-11T08:18:59.887Z,1014.98
2018-08-11T08:20:52.712Z,1014.94
2018-08-11T08:21:52.662Z,1014.91
2018-08-11T08:23:45.469Z,1015.00
2018-08-11T08:24:45.447Z,1015.00
2018-08-11T08:26:38.886Z,1014.99
2018-08-11T08:27:38.719Z,1015.01
2018-08-11T08:29:31.525Z,1014.99
2018-08-11T08:30:31.494Z,1014.97
2018-08-11T08:32:24.330Z,1014.98
2018-08-11T08:33:24.279Z,1014.97
2018-08-11T08:35:17.584Z,1014.99
2018-08-11T08:36:17.547Z,1014.99
2018-08-11T08:38:10.384Z,1014.96
2018-08-11T08:39:10.334Z,1014.97
2018-08-11T08:41:03.155Z,1014.95
2018-08-11T08:42:03.106Z,1014.98
2018-08-11T08:43:55.951Z,1014.90
2018-08-11T08:44:55.894Z,1014.87
2018-08-11T08:46:49.220Z,1014.84
2018-08-11T08:47:49.189Z,1014.82
2018-08-11T08:49:42.007Z,1014.80
2018-08-11T08:50:41.974Z,1014.84
2018-08-11T08:52:34.786Z,1014.86
2018-08-11T08:53:34.748Z,1014.88
2018-08-11T08:55:27.579Z,1014.80
2018-08-11T08:56:27.531Z,1014.79
2018-08-11T08:58:20.349Z,1014.87
2018-08-11T08:59:20.318Z,1014.91
2018-08-11T09:01:13.631Z,1014.82
2018-08-11T09:02:13.592Z,1014.91
2018-08-11T09:04:06.424Z,1014.85
2018-08-11T09:05:06.382Z,1014.83
2018-08-11T09:06:59.201Z,1014.86
2018-08-11T09:07:59.179Z,1014.83
2018-08-11T09:09:52.000Z,1014.83
2018-08-11T09:10:51.977Z,1014.88
2018-08-11T09:12:44.779Z,1014.85
2018-08-11T09:13:44.746Z,1014.85
2018-08-11T09:15:37.580Z,1014.87
2018-08-11T09:16:37.531Z,1014.89
2018-08-11T09:18:30.855Z,1014.81
2018-08-11T09:19:30.843Z,1014.79
2018-08-11T09:21:23.627Z,1014.78
2018-08-11T09:22:23.589Z,1014.82
2018-08-11T09:24:16.415Z,1014.90
2018-08-11T09:25:16.369Z,1014.86
2018-08-11T09:27:09.695Z,1014.91
2018-08-11T09:28:09.650Z,1014.94
2018-08-11T09:30:02.473Z,1014.93
2018-08-11T09:31:02.420Z,1014.92
2018-08-11T09:32:55.251Z,1014.99
2018-08-11T09:33:55.210Z,1014.95
2018-08-11T09:35:48.020Z,1015.00
2018-08-11T09:36:48.001Z,1014.98
2018-08-11T09:38:41.316Z,1014.99
2018-08-11T09:39:41.278Z,1014.99
2018-08-11T09:41:34.107Z,1015.02
2018-08-11T09:42:34.072Z,1014.96
2018-08-11T09:44:26.892Z,1014.97
2018-08-11T09:45:26.857Z,1015.02
2018-08-11T09:47:19.700Z,1015.04
2018-08-11T09:48:19.640Z,1015.04
2018-08-11T09:50:12.477Z,1015.09
2018-08-11T09:51:12.420Z,1015.03
2018-08-11T09:53:05.732Z,1015.09
2018-08-11T09:54:05.702Z,1015.11
2018-08-11T09:55:58.537Z,1015.11
2018-08-11T09:56:58.475Z,1015.09
2018-08-11T09:58:51.473Z,1015.10
2018-08-11T09:59:51.268Z,1015.03
2018-08-11T10:01:44.117Z,1015.06
2018-08-11T10:02:44.062Z,1015.03
2018-08-11T10:04:36.877Z,1015.01
2018-08-11T10:05:36.837Z,1015.49
2018-08-11T10:07:29.682Z,1015.38
2018-08-11T10:08:29.643Z,1015.39
2018-08-11T10:10:22.466Z,1015.45
2018-08-11T10:11:22.432Z,1015.42
2018-08-11T10:13:15.252Z,1014.93
2018-08-11T10:14:15.217Z,1014.85
2018-08-11T10:16:08.047Z,1014.89
2018-08-11T10:17:08.024Z,1015.41
2018-08-11T10:19:00.841Z,1015.39
2018-08-11T10:20:00.808Z,1015.33
2018-08-11T10:21:54.156Z,1015.49
2018-08-11T10:22:54.103Z,1015.38
2018-08-11T10:24:46.940Z,1015.41
2018-08-11T10:25:46.903Z,1015.37
2018-08-11T10:27:39.772Z,1015.35
2018-08-11T10:28:39.743Z,1015.31
2018-08-11T10:30:32.562Z,1015.34
2018-08-11T10:31:32.529Z,1015.31
2018-08-11T10:33:25.863Z,1015.41
2018-08-11T10:34:25.819Z,1015.44
2018-08-11T10:36:18.654Z,1015.44
2018-08-11T10:37:18.624Z,1015.47
2018-08-11T10:39:11.963Z,1015.49
2018-08-11T10:40:11.962Z,1015.45
2018-08-11T10:42:04.759Z,1015.42
2018-08-11T10:43:04.733Z,1015.46
2018-08-11T10:44:57.576Z,1015.27
2018-08-11T10:45:57.537Z,1015.47
2018-08-11T10:47:50.386Z,1014.80
2018-08-11T10:48:50.343Z,1015.18
2018-08-11T10:50:43.198Z,1014.89
2018-08-11T10:51:43.168Z,1014.93
2018-08-11T10:53:36.004Z,1015.41
2018-08-11T10:54:35.954Z,1015.34
2018-08-11T10:56:29.283Z,1015.28
2018-08-11T10:57:29.253Z,1015.27
2018-08-11T10:59:22.590Z,1015.30
2018-08-11T11:00:22.554Z,1014.66
2018-08-11T11:02:15.875Z,1014.79
2018-08-11T11:03:15.855Z,1014.79
2018-08-11T11:05:08.705Z,1014.85
2018-08-11T11:06:08.653Z,1014.82
2018-08-11T11:08:01.486Z,1014.85
2018-08-11T11:09:01.449Z,1015.36
2018-08-11T11:10:54.303Z,1015.20
2018-08-11T11:11:54.253Z,1015.17
2018-08-11T11:13:47.089Z,1015.16
2018-08-11T11:14:47.044Z,1015.11
2018-08-11T11:16:39.879Z,1015.06
2018-08-11T11:17:39.859Z,1015.09
2018-08-11T11:19:32.696Z,1014.86
2018-08-11T11:20:32.662Z,1014.89
2018-08-11T11:22:25.495Z,1015.03
2018-08-11T11:23:25.472Z,1014.98
2018-08-11T11:25:18.801Z,1014.64
2018-08-11T11:26:18.777Z,1014.65
2018-08-11T11:28:11.651Z,1014.68
2018-08-11T11:29:11.576Z,1015.16
2018-08-11T11:31:04.414Z,1015.08
2018-08-11T11:32:04.376Z,1014.99
2018-08-11T11:33:57.195Z,1014.99
2018-08-11T11:34:57.179Z,1015.11
2018-08-11T11:36:50.012Z,1015.09
2018-08-11T11:37:49.974Z,1015.09
2018-08-11T11:39:42.817Z,1015.08
2018-08-11T11:40:42.778Z,1015.13
2018-08-11T11:42:35.607Z,1015.11
2018-08-11T11:43:35.570Z,1015.09
2018-08-11T11:45:28.424Z,1014.78
2018-08-11T11:46:28.391Z,1015.18
2018-08-11T11:48:21.696Z,1015.21
2018-08-11T11:49:21.686Z,1015.24
2018-08-11T11:51:14.537Z,1015.17
2018-08-11T11:52:14.484Z,1015.14
2018-08-11T11:54:07.307Z,1015.10
2018-08-11T11:55:07.287Z,1014.75
2018-08-11T11:57:00.118Z,1015.12
2018-08-11T11:58:00.102Z,1015.06
2018-08-11T11:59:53.436Z,1015.10
2018-08-11T12:00:53.385Z,1015.04
2018-08-11T12:02:46.300Z,1014.81
2018-08-11T12:03:46.261Z,1014.86
2018-08-11T12:05:39.124Z,1015.10
2018-08-11T12:06:39.069Z,1015.15
2018-08-11T12:08:31.905Z,1015.09
2018-08-11T12:09:31.862Z,1015.07
2018-08-11T12:11:24.721Z,1015.02
2018-08-11T12:12:24.687Z,1014.98
2018-08-11T12:14:17.518Z,1014.89
2018-08-11T12:15:17.491Z,1014.90
2018-08-11T12:17:10.331Z,1014.92
2018-08-11T12:18:10.298Z,1014.90
2018-08-11T12:20:03.109Z,1014.92
2018-08-11T12:21:03.100Z,1014.55
2018-08-11T12:22:55.943Z,1014.63
2018-08-11T12:23:55.917Z,1015.01
2018-08-11T12:25:48.717Z,1015.00
2018-08-11T12:26:48.706Z,1014.96
2018-08-11T12:28:41.557Z,1014.98
2018-08-11T12:29:41.511Z,1014.97
2018-08-11T12:31:34.357Z,1014.88
2018-08-11T12:32:34.311Z,1014.97
2018-08-11T12:34:27.636Z,1014.59
2018-08-11T12:35:27.621Z,1014.72
2018-08-11T12:37:20.498Z,1014.72
2018-08-11T12:38:20.452Z,1014.90
2018-08-11T12:40:13.305Z,1014.84
2018-08-11T12:41:13.242Z,1014.78
2018-08-11T12:43:06.087Z,1014.58
2018-08-11T12:44:06.042Z,1014.59
2018-08-11T12:45:58.944Z,1014.74
2018-08-11T12:46:58.868Z,1014.75
2018-08-11T12:48:51.699Z,1014.80
2018-08-11T12:49:51.662Z,1014.80
2018-08-11T12:51:44.489Z,1014.80
2018-08-11T12:52:44.458Z,1014.74
2018-08-11T12:54:37.308Z,1014.68
2018-08-11T12:55:37.268Z,1014.78
2018-08-11T12:57:30.098Z,1014.65
2018-08-11T12:58:30.060Z,1014.60
2018-08-11T13:00:23.384Z,1014.66
2018-08-11T13:01:23.359Z,1014.60
2018-08-11T13:03:16.206Z,1014.63
2018-08-11T13:04:16.163Z,1014.69
2018-08-11T13:06:09.005Z,1014.72
2018-08-11T13:07:08.964Z,1014.63
2018-08-11T13:09:01.784Z,1014.65
2018-08-11T13:10:01.763Z,1014.61
2018-08-11T13:11:54.604Z,1014.57
2018-08-11T13:12:54.565Z,1014.61
2018-08-11T13:14:47.402Z,1014.36
2018-08-11T13:15:47.364Z,1014.46
2018-08-11T13:17:40.325Z,1014.43
2018-08-11T13:18:40.160Z,1014.45
2018-08-11T13:20:33.081Z,1014.69
2018-08-11T13:21:32.973Z,1014.66
2018-08-11T13:23:25.795Z,1014.62
2018-08-11T13:24:25.769Z,1014.33
2018-08-11T13:26:19.107Z,1014.60
2018-08-11T13:27:19.060Z,1014.48
2018-08-11T13:29:11.895Z,1014.51
2018-08-11T13:30:11.874Z,1014.55
2018-08-11T13:32:05.221Z,1014.43
2018-08-11T13:33:05.179Z,1014.49
2018-08-11T13:34:58.031Z,1014.42
2018-08-11T13:35:58.008Z,1014.44
2018-08-11T13:37:51.315Z,1014.45
2018-08-11T13:38:51.289Z,1014.48
2018-08-11T13:40:44.136Z,1014.40
2018-08-11T13:41:44.092Z,1014.48
2018-08-11T13:43:36.934Z,1014.44
2018-08-11T13:44:36.888Z,1014.40
2018-08-11T13:46:29.739Z,1014.10
2018-08-11T13:47:29.711Z,1014.28
2018-08-11T13:49:23.017Z,1014.31
2018-08-11T13:50:22.995Z,1014.23
2018-08-11T13:52:15.843Z,1014.25
2018-08-11T13:53:15.789Z,1014.28
2018-08-11T13:55:09.233Z,1014.26
2018-08-11T13:56:09.091Z,1014.22
2018-08-11T13:58:02.429Z,1014.28
2018-08-11T13:59:02.391Z,1014.19
2018-08-11T14:00:55.241Z,1014.15
2018-08-11T14:01:55.191Z,1014.23
2018-08-11T14:03:48.511Z,1014.20
2018-08-11T14:04:48.486Z,1014.27
2018-08-11T14:06:41.356Z,1014.25
2018-08-11T14:07:41.285Z,1014.18
2018-08-11T14:09:34.119Z,1014.20
2018-08-11T14:10:34.096Z,1014.13
2018-08-11T14:12:26.952Z,1014.08
2018-08-11T14:13:26.897Z,1014.07
2018-08-11T14:15:19.746Z,1014.13
2018-08-11T14:16:19.717Z,1014.13
2018-08-11T14:18:13.906Z,1014.13
2018-08-11T14:19:13.861Z,1014.03
2018-08-11T14:21:07.200Z,1013.93
2018-08-11T14:22:07.169Z,1014.04
2018-08-11T14:24:00.033Z,1014.10
2018-08-11T14:24:59.978Z,1014.05
2018-08-11T14:26:52.831Z,1014.09
2018-08-11T14:27:52.783Z,1014.09
2018-08-11T14:29:45.609Z,1014.12
2018-08-11T14:30:45.581Z,1013.99
2018-08-11T14:32:38.478Z,1013.94
2018-08-11T14:33:38.383Z,1014.07
2018-08-11T14:35:31.905Z,1014.15
2018-08-11T14:36:31.673Z,1014.11
2018-08-11T14:38:25.012Z,1014.05
2018-08-11T14:39:24.968Z,1014.07
2018-08-11T14:41:17.807Z,1014.01
2018-08-11T14:42:17.797Z,1014.09
2018-08-11T14:44:11.128Z,1013.95
2018-08-11T14:45:11.079Z,1014.06
2018-08-11T14:47:03.917Z,1014.08
2018-08-11T14:48:03.956Z,1013.96
2018-08-11T14:49:56.722Z,1013.95
2018-08-11T14:50:56.678Z,1013.96
2018-08-11T14:52:50.033Z,1013.96
2018-08-11T14:53:49.988Z,1014.03
2018-08-11T14:55:42.821Z,1014.04
2018-08-11T14:56:42.778Z,1014.01
2018-08-11T14:58:36.118Z,1014.01
2018-08-11T14:59:36.092Z,1014.06
2018-08-11T15:01:28.927Z,1013.99
2018-08-11T15:02:28.894Z,1014.00
2018-08-11T15:04:21.746Z,1014.01
2018-08-11T15:05:21.704Z,1014.02
2018-08-11T15:07:14.523Z,1013.96
2018-08-11T15:08:14.497Z,1014.01
2018-08-11T15:10:07.391Z,1013.91
2018-08-11T15:11:07.367Z,1013.98
2018-08-11T15:13:00.135Z,1013.93
2018-08-11T15:14:00.110Z,1013.87
2018-08-11T15:15:52.992Z,1013.95
2018-08-11T15:16:52.914Z,1013.91
2018-08-11T15:18:45.749Z,1013.91
2018-08-11T15:19:45.710Z,1013.86
2018-08-11T15:21:38.554Z,1013.84
2018-08-11T15:22:38.528Z,1013.86
2018-08-11T15:24:31.378Z,1013.80
2018-08-11T15:25:31.323Z,1013.82
2018-08-11T15:27:24.640Z,1013.81
2018-08-11T15:28:24.619Z,1013.82
2018-08-11T15:30:17.951Z,1013.83
2018-08-11T15:31:17.914Z,1013.79
2018-08-11T15:33:10.729Z,1013.82
2018-08-11T15:34:10.706Z,1013.77
2018-08-11T15:36:04.055Z,1013.79
2018-08-11T15:37:04.011Z,1013.77
2018-08-11T15:38:57.388Z,1013.74
2018-08-11T15:39:57.352Z,1013.77
2018-08-11T15:41:50.187Z,1013.76
2018-08-11T15:42:50.146Z,1013.78
2018-08-11T15:44:43.500Z,1013.79
2018-08-11T15:45:43.436Z,1013.79
2018-08-11T15:47:36.277Z,1013.76
2018-08-11T15:48:36.255Z,1013.77
2018-08-11T15:50:29.084Z,1013.71
2018-08-11T15:51:29.049Z,1013.78
2018-08-11T15:53:21.876Z,1013.78
2018-08-11T15:54:21.950Z,1013.77
2018-08-11T15:56:14.707Z,1013.78
2018-08-11T15:57:14.661Z,1013.79
2018-08-11T15:59:07.992Z,1013.69
2018-08-11T16:00:07.956Z,1013.70
2018-08-11T16:02:01.285Z,1013.61
2018-08-11T16:03:01.248Z,1013.66
2018-08-11T16:04:54.109Z,1013.60
2018-08-11T16:05:54.052Z,1013.65
2018-08-11T16:07:47.389Z,1013.58
2018-08-11T16:08:47.352Z,1013.59
2018-08-11T16:10:40.672Z,1013.63
2018-08-11T16:11:40.635Z,1013.60
2018-08-11T16:13:33.976Z,1013.65
2018-08-11T16:14:33.932Z,1013.68
2018-08-11T16:16:26.781Z,1013.74
2018-08-11T16:17:26.726Z,1013.69
2018-08-11T16:19:20.045Z,1013.70
2018-08-11T16:20:20.018Z,1013.70
2018-08-11T16:22:12.867Z,1013.66
2018-08-11T16:23:12.837Z,1013.65
2018-08-11T16:25:05.660Z,1013.66
2018-08-11T16:26:05.615Z,1013.66
2018-08-11T16:27:58.464Z,1013.62
2018-08-11T16:28:58.430Z,1013.68
2018-08-11T16:30:51.246Z,1013.66
2018-08-11T16:31:51.243Z,1013.69
2018-08-11T16:33:44.560Z,1013.70
2018-08-11T16:34:44.523Z,1013.67
2018-08-11T16:36:37.347Z,1013.61
2018-08-11T16:37:37.318Z,1013.60
2018-08-11T16:39:30.200Z,1013.63
2018-08-11T16:40:30.128Z,1013.60
2018-08-11T16:42:22.976Z,1013.61
2018-08-11T16:43:22.912Z,1013.57
2018-08-11T16:45:15.745Z,1013.59
2018-08-11T16:46:15.723Z,1013.57
2018-08-11T16:48:08.548Z,1013.57
2018-08-11T16:49:08.508Z,1013.64
2018-08-11T16:51:01.817Z,1013.58
2018-08-11T16:52:01.809Z,1013.55
2018-08-11T16:53:54.732Z,1013.58
2018-08-11T16:54:54.631Z,1013.56
2018-08-11T16:56:47.421Z,1013.59
2018-08-11T16:57:47.398Z,1013.59
2018-08-11T16:59:40.296Z,1013.58
2018-08-11T17:00:40.200Z,1013.55
2018-08-11T17:02:33.028Z,1013.52
2018-08-11T17:03:32.999Z,1013.49
2018-08-11T17:05:25.841Z,1013.48
2018-08-11T17:06:25.794Z,1013.46
2018-08-11T17:08:19.152Z,1013.45
2018-08-11T17:09:19.079Z,1013.47
2018-08-11T17:11:12.394Z,1013.44
2018-08-11T17:12:12.369Z,1013.42
2018-08-11T17:14:05.203Z,1013.42
2018-08-11T17:15:05.173Z,1013.44
2018-08-11T17:16:58.483Z,1013.43
2018-08-11T17:17:58.448Z,1013.42
2018-08-11T17:19:51.288Z,1013.49
2018-08-11T17:20:51.272Z,1013.43
2018-08-11T17:22:44.067Z,1013.43
2018-08-11T17:23:44.041Z,1013.44
2018-08-11T17:25:36.870Z,1013.40